sensor_id;sensor_type;location;lat;lon;timestamp;temperature;humidity
26964;DHT22;14521;48.148;-1.656;2023-10-08T00:01:04;22.30;88.50
26964;DHT22;14521;48.148;-1.656;2023-10-08T00:04:28;22.20;88.50
26964;DHT22;14521;48.148;-1.656;2023-10-08T00:07:50;22.20;88.30
26964;DHT22;14521;48.148;-1.656;2023-10-08T00:11:13;22.30;88.40
26964;DHT22;14521;48.148;-1.656;2023-10-08T00:14:37;22.20;88.30
26964;DHT22;14521;48.148;-1.656;2023-10-08T00:18:06;22.20;88.30
26964;DHT22;14521;48.148;-1.656;2023-10-08T00:21:28;22.20;88.30
26964;DHT22;14521;48.148;-1.656;2023-10-08T00:24:53;22.20;88.50
26964;DHT22;14521;48.148;-1.656;2023-10-08T00:28:23;22.20;88.30
26964;DHT22;14521;48.148;-1.656;2023-10-08T00:31:47;22.20;88.30
26964;DHT22;14521;48.148;-1.656;2023-10-08T00:35:11;22.20;88.30
26964;DHT22;14521;48.148;-1.656;2023-10-08T00:38:36;22.20;88.20
26964;DHT22;14521;48.148;-1.656;2023-10-08T00:41:59;22.20;88.20
26964;DHT22;14521;48.148;-1.656;2023-10-08T00:45:22;22.20;88.20
26964;DHT22;14521;48.148;-1.656;2023-10-08T00:48:46;22.20;88.00
26964;DHT22;14521;48.148;-1.656;2023-10-08T00:52:11;22.20;88.10
26964;DHT22;14521;48.148;-1.656;2023-10-08T00:55:33;22.20;88.00
26964;DHT22;14521;48.148;-1.656;2023-10-08T00:58:57;22.20;88.00
26964;DHT22;14521;48.148;-1.656;2023-10-08T01:02:31;22.20;88.10
26964;DHT22;14521;48.148;-1.656;2023-10-08T01:06:11;22.20;88.00
26964;DHT22;14521;48.148;-1.656;2023-10-08T01:09:34;22.20;88.10
26964;DHT22;14521;48.148;-1.656;2023-10-08T01:12:59;22.10;88.00
26964;DHT22;14521;48.148;-1.656;2023-10-08T01:16:32;22.20;88.00
26964;DHT22;14521;48.148;-1.656;2023-10-08T01:19:56;22.20;88.10
26964;DHT22;14521;48.148;-1.656;2023-10-08T01:23:27;22.10;88.00
26964;DHT22;14521;48.148;-1.656;2023-10-08T01:26:50;22.10;88.00
26964;DHT22;14521;48.148;-1.656;2023-10-08T01:30:13;22.10;87.90
26964;DHT22;14521;48.148;-1.656;2023-10-08T01:33:40;22.10;87.80
26964;DHT22;14521;48.148;-1.656;2023-10-08T01:37:08;22.10;87.80
26964;DHT22;14521;48.148;-1.656;2023-10-08T01:40:31;22.10;87.70
26964;DHT22;14521;48.148;-1.656;2023-10-08T01:43:53;22.10;87.60
26964;DHT22;14521;48.148;-1.656;2023-10-08T01:47:15;22.10;87.60
26964;DHT22;14521;48.148;-1.656;2023-10-08T01:50:38;22.10;87.70
26964;DHT22;14521;48.148;-1.656;2023-10-08T01:54:01;22.10;87.60
26964;DHT22;14521;48.148;-1.656;2023-10-08T01:57:24;22.10;87.60
26964;DHT22;14521;48.148;-1.656;2023-10-08T02:00:48;22.10;87.50
26964;DHT22;14521;48.148;-1.656;2023-10-08T02:04:11;22.10;88.20
26964;DHT22;14521;48.148;-1.656;2023-10-08T02:07:35;22.10;87.30
26964;DHT22;14521;48.148;-1.656;2023-10-08T02:10:57;22.10;87.40
26964;DHT22;14521;48.148;-1.656;2023-10-08T02:14:20;22.10;87.40
26964;DHT22;14521;48.148;-1.656;2023-10-08T02:17:44;22.10;87.40
26964;DHT22;14521;48.148;-1.656;2023-10-08T02:21:07;22.10;87.20
26964;DHT22;14521;48.148;-1.656;2023-10-08T02:24:32;22.10;87.30
26964;DHT22;14521;48.148;-1.656;2023-10-08T02:27:55;22.10;87.30
26964;DHT22;14521;48.148;-1.656;2023-10-08T02:31:17;22.10;87.00
26964;DHT22;14521;48.148;-1.656;2023-10-08T02:34:40;22.10;87.00
26964;DHT22;14521;48.148;-1.656;2023-10-08T02:38:02;22.00;87.00
26964;DHT22;14521;48.148;-1.656;2023-10-08T02:41:25;22.10;87.00
26964;DHT22;14521;48.148;-1.656;2023-10-08T02:44:48;22.10;87.00
26964;DHT22;14521;48.148;-1.656;2023-10-08T02:48:10;22.00;86.70
26964;DHT22;14521;48.148;-1.656;2023-10-08T02:51:39;22.00;86.80
26964;DHT22;14521;48.148;-1.656;2023-10-08T02:55:03;22.10;86.80
26964;DHT22;14521;48.148;-1.656;2023-10-08T02:58:27;22.00;86.60
26964;DHT22;14521;48.148;-1.656;2023-10-08T03:01:50;22.00;86.60
26964;DHT22;14521;48.148;-1.656;2023-10-08T03:05:18;22.00;86.40
26964;DHT22;14521;48.148;-1.656;2023-10-08T03:08:41;22.00;86.50
26964;DHT22;14521;48.148;-1.656;2023-10-08T03:12:04;22.00;87.20
26964;DHT22;14521;48.148;-1.656;2023-10-08T03:15:31;22.00;86.20
26964;DHT22;14521;48.148;-1.656;2023-10-08T03:19:01;22.00;86.20
26964;DHT22;14521;48.148;-1.656;2023-10-08T03:22:25;22.00;86.10
26964;DHT22;14521;48.148;-1.656;2023-10-08T03:25:56;22.00;86.20
26964;DHT22;14521;48.148;-1.656;2023-10-08T03:29:39;22.00;86.10
26964;DHT22;14521;48.148;-1.656;2023-10-08T03:33:07;22.00;86.10
26964;DHT22;14521;48.148;-1.656;2023-10-08T03:36:33;22.00;86.00
26964;DHT22;14521;48.148;-1.656;2023-10-08T03:40:06;22.00;86.00
26964;DHT22;14521;48.148;-1.656;2023-10-08T03:43:44;22.00;85.90
26964;DHT22;14521;48.148;-1.656;2023-10-08T03:47:20;22.00;85.80
26964;DHT22;14521;48.148;-1.656;2023-10-08T03:50:44;22.00;85.70
26964;DHT22;14521;48.148;-1.656;2023-10-08T03:54:07;22.00;85.70
26964;DHT22;14521;48.148;-1.656;2023-10-08T03:57:39;22.00;85.70
26964;DHT22;14521;48.148;-1.656;2023-10-08T04:01:06;22.00;85.70
26964;DHT22;14521;48.148;-1.656;2023-10-08T04:04:32;21.90;85.70
26964;DHT22;14521;48.148;-1.656;2023-10-08T04:08:11;21.90;85.70
26964;DHT22;14521;48.148;-1.656;2023-10-08T04:11:39;21.90;85.60
26964;DHT22;14521;48.148;-1.656;2023-10-08T04:15:11;21.90;85.50
26964;DHT22;14521;48.148;-1.656;2023-10-08T04:18:39;21.90;85.40
26964;DHT22;14521;48.148;-1.656;2023-10-08T04:22:02;21.90;85.50
26964;DHT22;14521;48.148;-1.656;2023-10-08T04:25:26;21.90;85.40
26964;DHT22;14521;48.148;-1.656;2023-10-08T04:28:53;21.90;85.40
26964;DHT22;14521;48.148;-1.656;2023-10-08T04:32:25;21.90;85.40
26964;DHT22;14521;48.148;-1.656;2023-10-08T04:35:47;21.90;85.40
26964;DHT22;14521;48.148;-1.656;2023-10-08T04:39:24;21.90;85.20
26964;DHT22;14521;48.148;-1.656;2023-10-08T04:42:54;21.90;85.20
26964;DHT22;14521;48.148;-1.656;2023-10-08T04:46:16;21.90;85.20
26964;DHT22;14521;48.148;-1.656;2023-10-08T04:49:42;21.80;85.10
26964;DHT22;14521;48.148;-1.656;2023-10-08T04:53:07;21.90;85.20
26964;DHT22;14521;48.148;-1.656;2023-10-08T04:56:30;21.80;85.80
26964;DHT22;14521;48.148;-1.656;2023-10-08T04:59:55;21.80;85.10
26964;DHT22;14521;48.148;-1.656;2023-10-08T05:03:20;21.80;85.10
26964;DHT22;14521;48.148;-1.656;2023-10-08T05:06:45;21.80;84.90
26964;DHT22;14521;48.148;-1.656;2023-10-08T05:10:07;21.80;85.00
26964;DHT22;14521;48.148;-1.656;2023-10-08T05:13:30;21.80;85.00
26964;DHT22;14521;48.148;-1.656;2023-10-08T05:17:01;21.80;84.80
26964;DHT22;14521;48.148;-1.656;2023-10-08T05:20:31;21.80;84.80
26964;DHT22;14521;48.148;-1.656;2023-10-08T05:24:12;21.80;84.90
26964;DHT22;14521;48.148;-1.656;2023-10-08T05:27:41;21.80;84.80
26964;DHT22;14521;48.148;-1.656;2023-10-08T05:31:09;21.80;84.70
26964;DHT22;14521;48.148;-1.656;2023-10-08T05:34:37;21.80;84.80
26964;DHT22;14521;48.148;-1.656;2023-10-08T05:38:18;21.80;84.70
26964;DHT22;14521;48.148;-1.656;2023-10-08T05:41:53;21.80;84.70
26964;DHT22;14521;48.148;-1.656;2023-10-08T05:45:35;21.80;84.70
26964;DHT22;14521;48.148;-1.656;2023-10-08T05:48:58;21.80;84.70
26964;DHT22;14521;48.148;-1.656;2023-10-08T05:52:30;21.80;84.70
26964;DHT22;14521;48.148;-1.656;2023-10-08T05:56:12;21.80;84.60
26964;DHT22;14521;48.148;-1.656;2023-10-08T06:00:05;21.80;84.80
26964;DHT22;14521;48.148;-1.656;2023-10-08T06:03:27;21.80;84.80
26964;DHT22;14521;48.148;-1.656;2023-10-08T06:07:18;21.70;84.80
26964;DHT22;14521;48.148;-1.656;2023-10-08T06:10:55;21.70;84.70
26964;DHT22;14521;48.148;-1.656;2023-10-08T06:14:19;21.70;84.80
26964;DHT22;14521;48.148;-1.656;2023-10-08T06:18:11;21.70;84.60
26964;DHT22;14521;48.148;-1.656;2023-10-08T06:21:40;21.80;84.70
26964;DHT22;14521;48.148;-1.656;2023-10-08T06:25:02;21.70;84.60
26964;DHT22;14521;48.148;-1.656;2023-10-08T06:28:45;21.70;84.60
26964;DHT22;14521;48.148;-1.656;2023-10-08T06:32:07;21.70;84.60
26964;DHT22;14521;48.148;-1.656;2023-10-08T06:35:30;21.70;84.60
26964;DHT22;14521;48.148;-1.656;2023-10-08T06:38:52;21.70;84.40
26964;DHT22;14521;48.148;-1.656;2023-10-08T06:42:15;21.70;84.70
26964;DHT22;14521;48.148;-1.656;2023-10-08T06:45:42;21.70;84.60
26964;DHT22;14521;48.148;-1.656;2023-10-08T06:49:08;21.70;84.60
26964;DHT22;14521;48.148;-1.656;2023-10-08T06:52:34;21.70;84.50
26964;DHT22;14521;48.148;-1.656;2023-10-08T06:55:58;21.70;84.50
26964;DHT22;14521;48.148;-1.656;2023-10-08T06:59:25;21.70;84.60
26964;DHT22;14521;48.148;-1.656;2023-10-08T07:02:53;21.70;84.40
26964;DHT22;14521;48.148;-1.656;2023-10-08T07:06:16;21.70;84.30
26964;DHT22;14521;48.148;-1.656;2023-10-08T07:09:39;21.70;84.60
26964;DHT22;14521;48.148;-1.656;2023-10-08T07:13:01;21.70;84.40
26964;DHT22;14521;48.148;-1.656;2023-10-08T07:16:24;21.70;84.30
26964;DHT22;14521;48.148;-1.656;2023-10-08T07:19:49;21.70;84.50
26964;DHT22;14521;48.148;-1.656;2023-10-08T07:23:13;21.70;84.60
26964;DHT22;14521;48.148;-1.656;2023-10-08T07:26:41;21.70;84.50
26964;DHT22;14521;48.148;-1.656;2023-10-08T07:30:08;21.70;84.50
26964;DHT22;14521;48.148;-1.656;2023-10-08T07:33:32;21.70;84.50
26964;DHT22;14521;48.148;-1.656;2023-10-08T07:36:58;21.70;84.60
26964;DHT22;14521;48.148;-1.656;2023-10-08T07:40:21;21.70;84.60
26964;DHT22;14521;48.148;-1.656;2023-10-08T07:43:50;21.70;84.60
26964;DHT22;14521;48.148;-1.656;2023-10-08T07:47:18;21.70;84.60
26964;DHT22;14521;48.148;-1.656;2023-10-08T07:50:45;21.70;84.80
26964;DHT22;14521;48.148;-1.656;2023-10-08T07:54:08;21.70;84.90
26964;DHT22;14521;48.148;-1.656;2023-10-08T07:57:38;21.70;84.80
26964;DHT22;14521;48.148;-1.656;2023-10-08T08:01:03;21.80;84.80
26964;DHT22;14521;48.148;-1.656;2023-10-08T08:04:28;21.70;84.90
26964;DHT22;14521;48.148;-1.656;2023-10-08T08:07:55;21.70;84.90
26964;DHT22;14521;48.148;-1.656;2023-10-08T08:11:20;21.70;85.00
26964;DHT22;14521;48.148;-1.656;2023-10-08T08:14:48;21.70;85.10
26964;DHT22;14521;48.148;-1.656;2023-10-08T08:18:11;21.80;85.10
26964;DHT22;14521;48.148;-1.656;2023-10-08T08:21:44;21.80;85.10
26964;DHT22;14521;48.148;-1.656;2023-10-08T08:25:07;21.80;85.40
26964;DHT22;14521;48.148;-1.656;2023-10-08T08:28:48;21.80;85.30
26964;DHT22;14521;48.148;-1.656;2023-10-08T08:32:11;21.80;85.40
26964;DHT22;14521;48.148;-1.656;2023-10-08T08:35:44;21.80;85.40
26964;DHT22;14521;48.148;-1.656;2023-10-08T08:39:07;21.80;85.40
26964;DHT22;14521;48.148;-1.656;2023-10-08T08:42:33;21.80;85.60
26964;DHT22;14521;48.148;-1.656;2023-10-08T08:45:57;21.80;85.70
26964;DHT22;14521;48.148;-1.656;2023-10-08T08:49:20;21.80;85.70
26964;DHT22;14521;48.148;-1.656;2023-10-08T08:52:42;21.80;85.80
26964;DHT22;14521;48.148;-1.656;2023-10-08T08:56:09;21.80;85.90
26964;DHT22;14521;48.148;-1.656;2023-10-08T08:59:32;21.80;86.00
26964;DHT22;14521;48.148;-1.656;2023-10-08T09:02:54;21.80;86.00
26964;DHT22;14521;48.148;-1.656;2023-10-08T09:06:17;21.80;86.10
26964;DHT22;14521;48.148;-1.656;2023-10-08T09:09:41;21.80;86.10
26964;DHT22;14521;48.148;-1.656;2023-10-08T09:13:04;21.80;86.00
26964;DHT22;14521;48.148;-1.656;2023-10-08T09:16:27;21.80;86.00
26964;DHT22;14521;48.148;-1.656;2023-10-08T09:19:52;21.90;86.10
26964;DHT22;14521;48.148;-1.656;2023-10-08T09:23:16;21.80;86.00
26964;DHT22;14521;48.148;-1.656;2023-10-08T09:26:46;21.90;86.10
26964;DHT22;14521;48.148;-1.656;2023-10-08T09:30:12;21.80;86.10
26964;DHT22;14521;48.148;-1.656;2023-10-08T09:33:41;21.90;86.10
26964;DHT22;14521;48.148;-1.656;2023-10-08T09:37:04;21.90;86.10
26964;DHT22;14521;48.148;-1.656;2023-10-08T09:40:26;21.90;86.10
26964;DHT22;14521;48.148;-1.656;2023-10-08T09:43:49;21.90;86.20
26964;DHT22;14521;48.148;-1.656;2023-10-08T09:47:20;21.90;86.20
26964;DHT22;14521;48.148;-1.656;2023-10-08T09:50:44;21.90;86.20
26964;DHT22;14521;48.148;-1.656;2023-10-08T09:54:11;21.90;86.20
26964;DHT22;14521;48.148;-1.656;2023-10-08T09:57:37;21.90;86.20
26964;DHT22;14521;48.148;-1.656;2023-10-08T10:01:00;21.90;86.40
26964;DHT22;14521;48.148;-1.656;2023-10-08T10:04:23;21.90;86.40
26964;DHT22;14521;48.148;-1.656;2023-10-08T10:07:55;22.00;86.50
26964;DHT22;14521;48.148;-1.656;2023-10-08T10:11:17;21.90;86.40
26964;DHT22;14521;48.148;-1.656;2023-10-08T10:14:46;21.90;87.30
26964;DHT22;14521;48.148;-1.656;2023-10-08T10:18:27;21.90;86.50
26964;DHT22;14521;48.148;-1.656;2023-10-08T10:21:51;21.90;86.50
26964;DHT22;14521;48.148;-1.656;2023-10-08T10:25:16;22.00;86.70
26964;DHT22;14521;48.148;-1.656;2023-10-08T10:28:40;22.00;86.70
26964;DHT22;14521;48.148;-1.656;2023-10-08T10:32:02;22.00;86.60
26964;DHT22;14521;48.148;-1.656;2023-10-08T10:35:27;22.00;86.70
26964;DHT22;14521;48.148;-1.656;2023-10-08T10:38:50;22.00;86.60
26964;DHT22;14521;48.148;-1.656;2023-10-08T10:42:15;22.00;86.50
26964;DHT22;14521;48.148;-1.656;2023-10-08T10:45:44;22.00;86.60
26964;DHT22;14521;48.148;-1.656;2023-10-08T10:49:09;22.00;86.50
26964;DHT22;14521;48.148;-1.656;2023-10-08T10:52:41;21.90;86.40
26964;DHT22;14521;48.148;-1.656;2023-10-08T10:56:16;22.00;86.40
26964;DHT22;14521;48.148;-1.656;2023-10-08T10:59:41;22.00;86.30
26964;DHT22;14521;48.148;-1.656;2023-10-08T11:03:14;22.00;86.30
26964;DHT22;14521;48.148;-1.656;2023-10-08T11:06:40;21.90;86.30
26964;DHT22;14521;48.148;-1.656;2023-10-08T11:10:03;22.00;87.10
26964;DHT22;14521;48.148;-1.656;2023-10-08T11:13:28;22.00;86.40
26964;DHT22;14521;48.148;-1.656;2023-10-08T11:16:56;22.00;86.20
26964;DHT22;14521;48.148;-1.656;2023-10-08T11:20:27;22.00;86.20
26964;DHT22;14521;48.148;-1.656;2023-10-08T11:23:51;22.00;86.20
26964;DHT22;14521;48.148;-1.656;2023-10-08T11:27:21;22.00;86.40
26964;DHT22;14521;48.148;-1.656;2023-10-08T11:30:59;22.00;86.20
26964;DHT22;14521;48.148;-1.656;2023-10-08T11:34:32;22.00;86.30
26964;DHT22;14521;48.148;-1.656;2023-10-08T11:38:00;22.00;86.30
26964;DHT22;14521;48.148;-1.656;2023-10-08T11:41:24;22.00;86.20
26964;DHT22;14521;48.148;-1.656;2023-10-08T11:44:49;22.00;86.20
26964;DHT22;14521;48.148;-1.656;2023-10-08T11:48:15;22.00;86.20
26964;DHT22;14521;48.148;-1.656;2023-10-08T11:51:45;22.00;86.30
26964;DHT22;14521;48.148;-1.656;2023-10-08T11:55:11;22.00;86.30
26964;DHT22;14521;48.148;-1.656;2023-10-08T11:58:41;22.10;86.40
26964;DHT22;14521;48.148;-1.656;2023-10-08T12:02:06;22.00;86.40
26964;DHT22;14521;48.148;-1.656;2023-10-08T12:05:29;22.00;86.40
26964;DHT22;14521;48.148;-1.656;2023-10-08T12:08:52;22.00;86.40
26964;DHT22;14521;48.148;-1.656;2023-10-08T12:12:16;22.00;86.40
26964;DHT22;14521;48.148;-1.656;2023-10-08T12:15:43;22.00;86.50
26964;DHT22;14521;48.148;-1.656;2023-10-08T12:19:06;22.00;86.50
26964;DHT22;14521;48.148;-1.656;2023-10-08T12:22:38;22.00;86.40
26964;DHT22;14521;48.148;-1.656;2023-10-08T12:26:00;22.00;86.40
26964;DHT22;14521;48.148;-1.656;2023-10-08T12:29:25;22.10;86.60
26964;DHT22;14521;48.148;-1.656;2023-10-08T12:32:48;22.10;86.50
26964;DHT22;14521;48.148;-1.656;2023-10-08T12:36:12;22.10;86.50
26964;DHT22;14521;48.148;-1.656;2023-10-08T12:39:34;22.00;86.40
26964;DHT22;14521;48.148;-1.656;2023-10-08T12:43:05;22.10;86.50
26964;DHT22;14521;48.148;-1.656;2023-10-08T12:46:29;22.10;86.50
26964;DHT22;14521;48.148;-1.656;2023-10-08T12:49:53;22.10;86.60
26964;DHT22;14521;48.148;-1.656;2023-10-08T12:53:20;22.10;86.60
26964;DHT22;14521;48.148;-1.656;2023-10-08T12:56:48;22.10;86.50
26964;DHT22;14521;48.148;-1.656;2023-10-08T13:00:12;22.10;86.60
26964;DHT22;14521;48.148;-1.656;2023-10-08T13:03:34;22.10;86.50
26964;DHT22;14521;48.148;-1.656;2023-10-08T13:07:03;22.10;86.50
26964;DHT22;14521;48.148;-1.656;2023-10-08T13:10:25;22.10;86.60
26964;DHT22;14521;48.148;-1.656;2023-10-08T13:13:52;22.10;86.50
26964;DHT22;14521;48.148;-1.656;2023-10-08T13:17:15;22.10;86.60
26964;DHT22;14521;48.148;-1.656;2023-10-08T13:20:37;22.10;86.60
26964;DHT22;14521;48.148;-1.656;2023-10-08T13:24:03;22.10;86.50
26964;DHT22;14521;48.148;-1.656;2023-10-08T13:27:27;22.10;86.60
26964;DHT22;14521;48.148;-1.656;2023-10-08T13:30:50;22.10;86.60
26964;DHT22;14521;48.148;-1.656;2023-10-08T13:34:14;22.20;86.70
26964;DHT22;14521;48.148;-1.656;2023-10-08T13:37:38;22.20;86.60
26964;DHT22;14521;48.148;-1.656;2023-10-08T13:41:05;22.20;86.60
26964;DHT22;14521;48.148;-1.656;2023-10-08T13:44:42;22.20;86.70
26964;DHT22;14521;48.148;-1.656;2023-10-08T13:48:07;22.20;86.70
26964;DHT22;14521;48.148;-1.656;2023-10-08T13:51:33;22.20;86.70
26964;DHT22;14521;48.148;-1.656;2023-10-08T13:54:57;22.20;86.60
26964;DHT22;14521;48.148;-1.656;2023-10-08T13:58:22;22.20;86.70
26964;DHT22;14521;48.148;-1.656;2023-10-08T14:01:45;22.20;86.70
26964;DHT22;14521;48.148;-1.656;2023-10-08T14:05:15;22.20;86.70
26964;DHT22;14521;48.148;-1.656;2023-10-08T14:08:37;22.20;86.70
26964;DHT22;14521;48.148;-1.656;2023-10-08T14:12:01;22.20;86.70
26964;DHT22;14521;48.148;-1.656;2023-10-08T14:15:23;22.20;86.70
26964;DHT22;14521;48.148;-1.656;2023-10-08T14:18:52;22.30;86.70
26964;DHT22;14521;48.148;-1.656;2023-10-08T14:22:16;22.20;86.70
26964;DHT22;14521;48.148;-1.656;2023-10-08T14:25:39;22.20;86.70
26964;DHT22;14521;48.148;-1.656;2023-10-08T14:29:06;22.30;86.80
26964;DHT22;14521;48.148;-1.656;2023-10-08T14:32:39;22.30;86.80
26964;DHT22;14521;48.148;-1.656;2023-10-08T14:36:01;22.30;86.80
26964;DHT22;14521;48.148;-1.656;2023-10-08T14:39:53;22.30;86.90
26964;DHT22;14521;48.148;-1.656;2023-10-08T14:43:34;22.30;86.80
26964;DHT22;14521;48.148;-1.656;2023-10-08T14:46:56;22.30;86.70
26964;DHT22;14521;48.148;-1.656;2023-10-08T14:50:19;22.30;86.70
26964;DHT22;14521;48.148;-1.656;2023-10-08T14:53:41;22.30;86.70
26964;DHT22;14521;48.148;-1.656;2023-10-08T14:57:04;22.30;86.70
26964;DHT22;14521;48.148;-1.656;2023-10-08T15:00:27;22.30;86.80
26964;DHT22;14521;48.148;-1.656;2023-10-08T15:03:49;22.30;86.70
26964;DHT22;14521;48.148;-1.656;2023-10-08T15:07:12;22.30;86.70
26964;DHT22;14521;48.148;-1.656;2023-10-08T15:10:40;22.30;86.70
26964;DHT22;14521;48.148;-1.656;2023-10-08T15:14:02;22.30;86.70
26964;DHT22;14521;48.148;-1.656;2023-10-08T15:17:31;22.40;86.90
26964;DHT22;14521;48.148;-1.656;2023-10-08T15:20:56;22.40;86.90
26964;DHT22;14521;48.148;-1.656;2023-10-08T15:24:21;22.40;86.90
26964;DHT22;14521;48.148;-1.656;2023-10-08T15:27:44;22.40;86.90
26964;DHT22;14521;48.148;-1.656;2023-10-08T15:31:07;22.40;86.90
26964;DHT22;14521;48.148;-1.656;2023-10-08T15:34:30;22.40;87.10
26964;DHT22;14521;48.148;-1.656;2023-10-08T15:38:00;22.40;87.10
26964;DHT22;14521;48.148;-1.656;2023-10-08T15:41:25;22.40;87.10
26964;DHT22;14521;48.148;-1.656;2023-10-08T15:44:47;22.40;87.10
26964;DHT22;14521;48.148;-1.656;2023-10-08T15:48:10;22.40;87.10
26964;DHT22;14521;48.148;-1.656;2023-10-08T15:51:33;22.40;87.10
26964;DHT22;14521;48.148;-1.656;2023-10-08T15:54:56;22.40;87.10
26964;DHT22;14521;48.148;-1.656;2023-10-08T15:58:18;22.40;87.10
26964;DHT22;14521;48.148;-1.656;2023-10-08T16:01:41;22.40;87.10
26964;DHT22;14521;48.148;-1.656;2023-10-08T16:05:08;22.40;87.10
26964;DHT22;14521;48.148;-1.656;2023-10-08T16:08:30;22.40;87.20
26964;DHT22;14521;48.148;-1.656;2023-10-08T16:11:53;22.50;87.30
26964;DHT22;14521;48.148;-1.656;2023-10-08T16:15:15;22.40;87.20
26964;DHT22;14521;48.148;-1.656;2023-10-08T16:18:38;22.40;87.20
26964;DHT22;14521;48.148;-1.656;2023-10-08T16:22:00;22.40;87.30
26964;DHT22;14521;48.148;-1.656;2023-10-08T16:25:23;22.50;87.30
26964;DHT22;14521;48.148;-1.656;2023-10-08T16:28:45;22.40;87.40
26964;DHT22;14521;48.148;-1.656;2023-10-08T16:32:08;22.40;87.30
26964;DHT22;14521;48.148;-1.656;2023-10-08T16:35:30;22.50;87.40
26964;DHT22;14521;48.148;-1.656;2023-10-08T16:38:52;22.50;87.50
26964;DHT22;14521;48.148;-1.656;2023-10-08T16:42:15;22.50;87.60
26964;DHT22;14521;48.148;-1.656;2023-10-08T16:45:38;22.50;87.60
26964;DHT22;14521;48.148;-1.656;2023-10-08T16:49:01;22.50;87.60
26964;DHT22;14521;48.148;-1.656;2023-10-08T16:52:23;22.50;87.60
26964;DHT22;14521;48.148;-1.656;2023-10-08T16:55:46;22.50;87.80
26964;DHT22;14521;48.148;-1.656;2023-10-08T16:59:09;22.40;87.80
26964;DHT22;14521;48.148;-1.656;2023-10-08T17:02:37;22.50;87.80
26964;DHT22;14521;48.148;-1.656;2023-10-08T17:06:00;22.50;87.90
26964;DHT22;14521;48.148;-1.656;2023-10-08T17:09:29;22.50;87.90
26964;DHT22;14521;48.148;-1.656;2023-10-08T17:12:52;22.40;87.90
26964;DHT22;14521;48.148;-1.656;2023-10-08T17:16:14;22.40;87.90
26964;DHT22;14521;48.148;-1.656;2023-10-08T17:19:38;22.50;88.20
26964;DHT22;14521;48.148;-1.656;2023-10-08T17:23:01;22.50;88.20
26964;DHT22;14521;48.148;-1.656;2023-10-08T17:26:24;22.50;88.30
26964;DHT22;14521;48.148;-1.656;2023-10-08T17:29:46;22.50;88.40
26964;DHT22;14521;48.148;-1.656;2023-10-08T17:33:09;22.50;88.40
26964;DHT22;14521;48.148;-1.656;2023-10-08T17:36:32;22.50;88.50
26964;DHT22;14521;48.148;-1.656;2023-10-08T17:39:55;22.50;88.70
26964;DHT22;14521;48.148;-1.656;2023-10-08T17:43:20;22.50;88.70
26964;DHT22;14521;48.148;-1.656;2023-10-08T17:46:42;22.50;88.70
26964;DHT22;14521;48.148;-1.656;2023-10-08T17:50:07;22.50;88.90
26964;DHT22;14521;48.148;-1.656;2023-10-08T17:53:30;22.50;88.90
26964;DHT22;14521;48.148;-1.656;2023-10-08T17:56:52;22.50;89.10
26964;DHT22;14521;48.148;-1.656;2023-10-08T18:00:16;22.50;89.10
26964;DHT22;14521;48.148;-1.656;2023-10-08T18:03:43;22.50;89.20
26964;DHT22;14521;48.148;-1.656;2023-10-08T18:07:06;22.50;89.30
26964;DHT22;14521;48.148;-1.656;2023-10-08T18:10:28;22.50;89.40
26964;DHT22;14521;48.148;-1.656;2023-10-08T18:13:52;22.50;89.30
26964;DHT22;14521;48.148;-1.656;2023-10-08T18:17:16;22.50;89.40
26964;DHT22;14521;48.148;-1.656;2023-10-08T18:20:39;22.50;89.40
26964;DHT22;14521;48.148;-1.656;2023-10-08T18:24:07;22.50;89.40
26964;DHT22;14521;48.148;-1.656;2023-10-08T18:27:29;22.40;89.40
26964;DHT22;14521;48.148;-1.656;2023-10-08T18:30:52;22.50;89.40
26964;DHT22;14521;48.148;-1.656;2023-10-08T18:34:14;22.40;89.40
26964;DHT22;14521;48.148;-1.656;2023-10-08T18:37:37;22.50;89.60
26964;DHT22;14521;48.148;-1.656;2023-10-08T18:40:59;22.40;89.60
26964;DHT22;14521;48.148;-1.656;2023-10-08T18:44:21;22.50;89.70
26964;DHT22;14521;48.148;-1.656;2023-10-08T18:47:44;22.50;89.70
26964;DHT22;14521;48.148;-1.656;2023-10-08T18:51:11;22.50;89.70
26964;DHT22;14521;48.148;-1.656;2023-10-08T18:54:35;22.40;89.70
26964;DHT22;14521;48.148;-1.656;2023-10-08T18:57:58;22.40;89.70
26964;DHT22;14521;48.148;-1.656;2023-10-08T19:01:21;22.40;89.70
26964;DHT22;14521;48.148;-1.656;2023-10-08T19:04:48;22.50;90.00
26964;DHT22;14521;48.148;-1.656;2023-10-08T19:08:12;22.50;90.00
26964;DHT22;14521;48.148;-1.656;2023-10-08T19:11:37;22.40;90.00
26964;DHT22;14521;48.148;-1.656;2023-10-08T19:15:00;22.50;90.00
26964;DHT22;14521;48.148;-1.656;2023-10-08T19:18:22;22.50;90.00
26964;DHT22;14521;48.148;-1.656;2023-10-08T19:21:45;22.50;90.10
26964;DHT22;14521;48.148;-1.656;2023-10-08T19:25:08;22.50;90.10
26964;DHT22;14521;48.148;-1.656;2023-10-08T19:28:32;22.50;90.10
26964;DHT22;14521;48.148;-1.656;2023-10-08T19:31:55;22.50;90.10
26964;DHT22;14521;48.148;-1.656;2023-10-08T19:35:18;22.40;90.10
26964;DHT22;14521;48.148;-1.656;2023-10-08T19:38:47;22.40;90.10
26964;DHT22;14521;48.148;-1.656;2023-10-08T19:42:11;22.40;90.10
26964;DHT22;14521;48.148;-1.656;2023-10-08T19:45:35;22.40;90.10
26964;DHT22;14521;48.148;-1.656;2023-10-08T19:49:01;22.40;90.20
26964;DHT22;14521;48.148;-1.656;2023-10-08T19:52:23;22.40;90.20
26964;DHT22;14521;48.148;-1.656;2023-10-08T19:55:49;22.40;90.20
26964;DHT22;14521;48.148;-1.656;2023-10-08T19:59:14;22.40;90.20
26964;DHT22;14521;48.148;-1.656;2023-10-08T20:02:45;22.40;90.20
26964;DHT22;14521;48.148;-1.656;2023-10-08T20:06:08;22.40;90.20
26964;DHT22;14521;48.148;-1.656;2023-10-08T20:09:30;22.40;90.20
26964;DHT22;14521;48.148;-1.656;2023-10-08T20:12:53;22.40;90.30
26964;DHT22;14521;48.148;-1.656;2023-10-08T20:16:16;22.40;90.30
26964;DHT22;14521;48.148;-1.656;2023-10-08T20:19:41;22.40;90.30
26964;DHT22;14521;48.148;-1.656;2023-10-08T20:23:04;22.40;90.20
26964;DHT22;14521;48.148;-1.656;2023-10-08T20:26:32;22.40;90.20
26964;DHT22;14521;48.148;-1.656;2023-10-08T20:29:56;22.40;90.30
26964;DHT22;14521;48.148;-1.656;2023-10-08T20:33:19;22.40;90.30
26964;DHT22;14521;48.148;-1.656;2023-10-08T20:36:43;22.40;90.30
26964;DHT22;14521;48.148;-1.656;2023-10-08T20:40:06;22.40;90.30
26964;DHT22;14521;48.148;-1.656;2023-10-08T20:43:31;22.40;90.30
26964;DHT22;14521;48.148;-1.656;2023-10-08T20:46:54;22.40;90.30
26964;DHT22;14521;48.148;-1.656;2023-10-08T20:50:17;22.40;90.30
26964;DHT22;14521;48.148;-1.656;2023-10-08T20:53:53;22.40;90.30
26964;DHT22;14521;48.148;-1.656;2023-10-08T20:57:18;22.30;90.30
26964;DHT22;14521;48.148;-1.656;2023-10-08T21:00:43;22.40;90.30
26964;DHT22;14521;48.148;-1.656;2023-10-08T21:04:07;22.30;90.30
26964;DHT22;14521;48.148;-1.656;2023-10-08T21:07:30;22.30;90.30
26964;DHT22;14521;48.148;-1.656;2023-10-08T21:10:52;22.30;90.30
26964;DHT22;14521;48.148;-1.656;2023-10-08T21:14:17;22.40;90.30
26964;DHT22;14521;48.148;-1.656;2023-10-08T21:17:41;22.40;90.30